Terminal Aerodrome Forecast
Issued by NWS

Home | Current Version | Previous Version | Text Only | Print | Product List | Glossary On
Versions: 1 2 3 4 5 6 7 8 9 10 11 12 13 14 15
214
FTUS43 KMQT 110526
TAFCMX
TAF
KCMX 110526Z 1106/1206 35012G17KT 3SM -SHSN SCT016 OVC025
     FM111000 32009KT 5SM -SHSN OVC022
     FM111600 31012G18KT 3SM -SHSN OVC024
     FM112000 28014G21KT 3SM -SHSN BLSN OVC022
     FM120400 31017G22KT 3SM -SHSN BLSN OVC026=

USA.gov is the U.S. government's official web portal to all federal, state and local government web resources and services.